Time;durP1;ratioP1;P1;durP2;ratioP2;P2;SDS_P1;SDS_P2;PMS_P1;PMS_P2;Temp;Humidity;BMP_temperature;BMP_pressure;BME280_temperature;BME280_humidity;BME280_pressure;Samples;Min_cycle;Max_cycle;Signal;HPM_P1;HPM_P2
2021/06/24 00:01:44;;;;;;;;;15.00;13.75;;;;;-147.17;100.00;59696.56;4973080;28;52108;-63
2021/06/24 00:04:09;;;;;;;;;12.00;12.00;;;;;-147.17;100.00;59696.56;4974551;28;51097;-62
2021/06/24 00:06:35;;;;;;;;;15.00;14.25;;;;;-147.17;100.00;59696.56;4972364;28;51279;-63
2021/06/24 00:09:00;;;;;;;;;11.75;11.75;;;;;-147.17;100.00;59696.56;4982935;28;51230;-62
2021/06/24 00:11:25;;;;;;;;;10.75;10.00;;;;;-147.17;100.00;59696.56;4973667;28;51909;-63
2021/06/24 00:13:51;;;;;;;;;13.50;13.25;;;;;-147.17;100.00;59696.56;4973066;28;51187;-62
2021/06/24 00:16:16;;;;;;;;;11.50;11.25;;;;;-147.17;100.00;59696.56;4977352;28;51095;-63
2021/06/24 00:18:42;;;;;;;;;12.25;12.25;;;;;-147.17;100.00;59696.56;4983079;28;51474;-63
2021/06/24 00:21:07;;;;;;;;;12.25;12.25;;;;;-147.17;100.00;59696.56;4954456;28;51784;-63
2021/06/24 00:23:34;;;;;;;;;13.00;10.25;;;;;-147.17;100.00;59696.56;4978690;28;51161;-62
2021/06/24 00:26:00;;;;;;;;;17.25;14.50;;;;;-147.17;100.00;59696.56;4973499;28;51218;-63
2021/06/24 00:28:28;;;;;;;;;16.00;14.25;;;;;-147.17;100.00;59696.56;4976778;28;51371;-63
2021/06/24 00:30:56;;;;;;;;;12.00;12.00;;;;;-147.17;100.00;59696.56;4981288;28;52275;-63
2021/06/24 00:33:21;;;;;;;;;16.00;14.00;;;;;-147.17;100.00;59696.56;4975324;28;51140;-62
2021/06/24 00:35:47;;;;;;;;;12.50;12.50;;;;;-147.17;100.00;59696.56;4991799;28;51308;-62
2021/06/24 00:38:13;;;;;;;;;16.00;13.75;;;;;-147.17;100.00;59696.56;4983177;28;50888;-62
2021/06/24 00:40:40;;;;;;;;;13.50;11.75;;;;;-147.17;100.00;59696.56;4972819;28;51819;-62
2021/06/24 00:43:08;;;;;;;;;12.75;12.75;;;;;-147.17;100.00;59696.56;4954769;28;51063;-62
2021/06/24 00:45:34;;;;;;;;;14.50;12.00;;;;;-147.17;100.00;59696.56;4971990;28;51042;-62
2021/06/24 00:48:00;;;;;;;;;15.75;15.00;;;;;-147.17;100.00;59696.56;4973773;28;50925;-62
2021/06/24 00:50:26;;;;;;;;;15.25;14.00;;;;;-147.17;100.00;59696.56;4971939;28;51001;-62
2021/06/24 00:52:51;;;;;;;;;11.25;11.25;;;;;-147.17;100.00;59696.56;4972296;28;51308;-63
2021/06/24 00:55:17;;;;;;;;;13.00;13.00;;;;;-147.17;100.00;59696.56;4973176;28;51259;-63
2021/06/24 00:57:43;;;;;;;;;11.50;11.50;;;;;-147.17;100.00;59696.56;4975401;28;51321;-63
2021/06/24 01:00:09;;;;;;;;;14.75;13.50;;;;;-147.17;100.00;59696.56;4947826;28;53957;-63
2021/06/24 01:02:38;;;;;;;;;12.25;11.25;;;;;-147.17;100.00;59696.56;4994738;28;51070;-63
2021/06/24 01:05:03;;;;;;;;;9.50;9.00;;;;;-147.17;100.00;59696.56;4976050;28;51030;-63
2021/06/24 01:07:29;;;;;;;;;11.50;11.50;;;;;-147.17;100.00;59696.56;4975472;28;51312;-65
2021/06/24 01:09:55;;;;;;;;;15.00;13.25;;;;;-147.17;100.00;59696.56;4978141;28;51971;-63
2021/06/24 01:12:21;;;;;;;;;13.25;13.00;;;;;-147.17;100.00;59696.56;4957623;28;51521;-63
2021/06/24 01:14:49;;;;;;;;;14.00;13.00;;;;;-147.17;100.00;59696.56;4966930;28;51144;-63
2021/06/24 01:17:14;;;;;;;;;13.75;13.00;;;;;-147.17;100.00;59696.56;4975536;28;51154;-64
2021/06/24 01:19:40;;;;;;;;;18.50;17.75;;;;;-147.17;100.00;59696.56;4984258;28;51713;-64
2021/06/24 01:22:06;;;;;;;;;15.25;14.75;;;;;-147.17;100.00;59696.56;4975066;28;51081;-63
2021/06/24 01:24:32;;;;;;;;;12.50;12.50;;;;;-147.17;100.00;59696.56;4975453;28;51404;-62
2021/06/24 01:26:57;;;;;;;;;13.25;12.75;;;;;-147.17;100.00;59696.56;4975171;28;51106;-62
2021/06/24 01:29:22;;;;;;;;;15.75;13.25;;;;;-147.17;100.00;59696.56;4979277;28;51889;-62
2021/06/24 01:31:48;;;;;;;;;11.00;11.00;;;;;-147.17;100.00;59696.56;4975014;28;50960;-61
2021/06/24 01:34:14;;;;;;;;;10.25;10.00;;;;;-147.17;100.00;59696.56;4986017;28;51220;-63
2021/06/24 01:36:39;;;;;;;;;9.75;9.00;;;;;-147.17;100.00;59696.56;4993250;28;51194;-61
2021/06/24 01:39:08;;;;;;;;;14.00;12.00;;;;;-147.17;100.00;59696.56;4983474;28;51729;-62
2021/06/24 01:41:33;;;;;;;;;13.25;13.25;;;;;-147.17;100.00;59696.56;4941313;28;50853;-64
2021/06/24 01:43:59;;;;;;;;;10.25;10.00;;;;;-147.17;100.00;59696.56;4978350;28;50973;-63
2021/06/24 01:46:25;;;;;;;;;12.50;12.50;;;;;-147.17;100.00;59696.56;4975191;28;51102;-63
2021/06/24 01:48:50;;;;;;;;;15.00;13.25;;;;;-147.17;100.00;59696.56;4974151;28;51787;-63
2021/06/24 01:51:15;;;;;;;;;11.00;11.00;;;;;-147.17;100.00;59696.56;4974729;28;51402;-64
2021/06/24 01:53:41;;;;;;;;;12.00;12.00;;;;;-147.17;100.00;59696.56;4975748;28;51193;-63
2021/06/24 01:56:06;;;;;;;;;11.50;10.50;;;;;-147.17;100.00;59696.56;4974894;28;50923;-63
2021/06/24 01:58:32;;;;;;;;;11.75;11.50;;;;;-147.17;100.00;59696.56;4980149;28;51080;-63
2021/06/24 02:01:00;;;;;;;;;9.50;9.00;;;;;-147.17;100.00;59696.56;4982205;28;51044;-63
2021/06/24 02:03:26;;;;;;;;;10.00;9.00;;;;;-147.17;100.00;59696.56;4977228;28;51123;-64
2021/06/24 02:05:57;;;;;;;;;14.00;12.00;;;;;-147.17;100.00;59696.56;4974447;28;51311;-63
2021/06/24 02:08:27;;;;;;;;;14.00;12.50;;;;;-147.17;100.00;59696.56;4974154;28;51755;-63
2021/06/24 02:10:55;;;;;;;;;10.75;9.50;;;;;-147.17;100.00;59696.56;4974172;28;51090;-65
2021/06/24 02:13:21;;;;;;;;;11.75;11.00;;;;;-147.17;100.00;59696.56;4974721;28;51116;-63
2021/06/24 02:15:47;;;;;;;;;8.00;8.00;;;;;-147.17;100.00;59696.56;4974498;28;51002;-63
2021/06/24 02:18:12;;;;;;;;;12.00;12.00;;;;;-147.17;100.00;59696.56;4976214;28;52271;-63
2021/06/24 02:20:38;;;;;;;;;12.00;11.00;;;;;-147.17;100.00;59696.56;4962914;28;51165;-63
2021/06/24 02:23:04;;;;;;;;;12.00;11.00;;;;;-147.17;100.00;59696.56;4975804;28;51278;-63
2021/06/24 02:25:29;;;;;;;;;12.00;11.50;;;;;-147.17;100.00;59696.56;4980228;28;51185;-61
2021/06/24 02:27:55;;;;;;;;;13.00;12.00;;;;;-147.17;100.00;59696.56;4975063;28;52618;-63
2021/06/24 02:30:22;;;;;;;;;12.50;11.00;;;;;-147.17;100.00;59696.56;4973787;28;51004;-63
2021/06/24 02:32:48;;;;;;;;;11.67;11.33;;;;;-147.17;100.00;59696.56;4974307;28;50908;-63
2021/06/24 02:35:15;;;;;;;;;12.50;11.00;;;;;-147.17;100.00;59696.56;4973384;28;50932;-63
2021/06/24 02:37:45;;;;;;;;;8.33;8.00;;;;;-147.17;100.00;59696.56;4967450;28;52059;-63
2021/06/24 02:40:12;;;;;;;;;12.75;12.50;;;;;-147.17;100.00;59696.56;4955101;28;51097;-63
2021/06/24 02:42:38;;;;;;;;;12.33;11.00;;;;;-147.17;100.00;59696.56;4953949;28;51105;-62
2021/06/24 02:45:05;;;;;;;;;13.00;12.00;;;;;-147.17;100.00;59696.56;4958339;28;51397;-63
2021/06/24 02:47:30;;;;;;;;;10.33;10.33;;;;;-147.17;100.00;59696.56;4952966;28;51904;-63
2021/06/24 02:49:56;;;;;;;;;14.33;12.00;;;;;-147.17;100.00;59696.56;4955678;28;51183;-63
2021/06/24 02:52:21;;;;;;;;;11.50;10.50;;;;;-147.17;100.00;59696.56;4954463;28;51083;-63
2021/06/24 02:54:47;;;;;;;;;11.33;11.33;;;;;-147.17;100.00;59696.56;4966484;28;51276;-63
2021/06/24 02:57:12;;;;;;;;;10.67;10.67;;;;;-147.17;100.00;59696.56;4954106;28;51428;-63
2021/06/24 02:59:37;;;;;;;;;11.33;11.33;;;;;-147.17;100.00;59696.56;4954877;28;51033;-63
2021/06/24 03:02:03;;;;;;;;;11.00;10.00;;;;;-147.17;100.00;59696.56;4954116;28;51083;-63
2021/06/24 03:04:29;;;;;;;;;12.00;12.00;;;;;-147.17;100.00;59696.56;4955239;28;51180;-62
2021/06/24 03:06:54;;;;;;;;;11.75;11.00;;;;;-147.17;100.00;59696.56;4953702;28;51042;-63
2021/06/24 03:09:20;;;;;;;;;11.00;10.75;;;;;-147.17;100.00;59696.56;4955336;28;51231;-63
2021/06/24 03:11:47;;;;;;;;;11.75;11.75;;;;;-147.17;100.00;59696.56;4961070;28;51057;-63
2021/06/24 03:14:13;;;;;;;;;13.00;12.00;;;;;-147.17;100.00;59696.56;4970141;28;51298;-63
2021/06/24 03:16:39;;;;;;;;;13.75;13.00;;;;;-147.17;100.00;59696.56;4953533;28;53195;-63
2021/06/24 03:19:05;;;;;;;;;8.75;8.50;;;;;-147.17;100.00;59696.56;4962395;28;51073;-63
2021/06/24 03:21:31;;;;;;;;;11.00;10.00;;;;;-147.17;100.00;59696.56;4953974;28;51110;-63
2021/06/24 03:23:56;;;;;;;;;12.00;11.00;;;;;-147.17;100.00;59696.56;4961543;28;51371;-63
2021/06/24 03:26:22;;;;;;;;;16.00;12.00;;;;;-147.17;100.00;59696.56;4952401;28;51259;-64
2021/06/24 03:28:47;;;;;;;;;11.25;11.00;;;;;-147.17;100.00;59696.56;4960392;28;51676;-62
2021/06/24 03:31:13;;;;;;;;;11.00;11.00;;;;;-147.17;100.00;59696.56;4953467;28;51061;-63
2021/06/24 03:33:38;;;;;;;;;9.00;9.00;;;;;-147.17;100.00;59696.56;4960326;28;51322;-63
2021/06/24 03:36:04;;;;;;;;;12.67;11.00;;;;;-147.17;100.00;59696.56;4984765;28;51946;-63
2021/06/24 03:38:29;;;;;;;;;10.00;10.00;;;;;-147.17;100.00;59696.56;4968503;28;51061;-62
2021/06/24 03:40:55;;;;;;;;;13.33;11.00;;;;;-147.17;100.00;59696.56;4973553;28;51096;-63
2021/06/24 03:43:21;;;;;;;;;14.33;11.00;;;;;-147.17;100.00;59696.56;4977414;28;51146;-62
2021/06/24 03:45:46;;;;;;;;;12.33;11.67;;;;;-147.17;100.00;59696.56;4972846;28;50992;-62
2021/06/24 03:48:11;;;;;;;;;9.25;9.25;;;;;-147.17;100.00;59696.56;4974260;28;51207;-62
2021/06/24 03:50:37;;;;;;;;;11.50;11.00;;;;;-147.17;100.00;59696.56;4972847;28;51513;-64
2021/06/24 03:53:03;;;;;;;;;10.00;9.33;;;;;-147.17;100.00;59696.56;4974397;28;51101;-64
2021/06/24 03:55:44;;;;;;;;;10.50;10.25;;;;;-147.17;100.00;59696.56;4972636;28;51110;-63
2021/06/24 03:58:11;;;;;;;;;11.33;11.33;;;;;-147.17;100.00;59696.56;4958491;28;51230;-63
2021/06/24 04:00:40;;;;;;;;;11.75;11.25;;;;;-147.17;100.00;59696.56;4972754;28;51203;-64
2021/06/24 04:03:06;;;;;;;;;15.00;13.00;;;;;-147.17;100.00;59696.56;4956183;28;51040;-64
2021/06/24 04:05:31;;;;;;;;;12.00;11.25;;;;;-147.17;100.00;59696.56;4972661;28;51058;-64
2021/06/24 04:07:59;;;;;;;;;9.67;9.00;;;;;-147.17;100.00;59696.56;4972824;28;51023;-64
2021/06/24 04:10:24;;;;;;;;;12.33;12.00;;;;;-147.17;100.00;59696.56;4975695;28;50943;-63
2021/06/24 04:12:50;;;;;;;;;11.33;11.33;;;;;-147.17;100.00;59696.56;4973413;28;51216;-63
2021/06/24 04:15:16;;;;;;;;;11.67;10.67;;;;;-147.17;100.00;59696.56;4982462;28;51675;-63
2021/06/24 04:17:41;;;;;;;;;11.00;10.00;;;;;-147.17;100.00;59696.56;4972551;28;50944;-63
2021/06/24 04:20:07;;;;;;;;;14.00;11.67;;;;;-147.17;100.00;59696.56;4981369;28;50944;-63
2021/06/24 04:22:32;;;;;;;;;14.25;11.00;;;;;-147.17;100.00;59696.56;4972697;28;51201;-63
2021/06/24 04:24:58;;;;;;;;;10.00;10.00;;;;;-147.17;100.00;59696.56;4980680;28;51193;-62
2021/06/24 04:27:23;;;;;;;;;9.67;9.00;;;;;-147.17;100.00;59696.56;4972299;28;51122;-63
2021/06/24 04:29:48;;;;;;;;;11.50;11.00;;;;;-147.17;100.00;59696.56;4976857;28;51025;-63
2021/06/24 04:32:14;;;;;;;;;11.67;11.67;;;;;-147.17;100.00;59696.56;4975810;28;51281;-63
2021/06/24 04:34:39;;;;;;;;;10.75;10.75;;;;;-147.17;100.00;59696.56;4990295;28;51956;-63
2021/06/24 04:37:04;;;;;;;;;9.00;8.33;;;;;-147.17;100.00;59696.56;4994404;28;50963;-63
2021/06/24 04:39:30;;;;;;;;;10.50;10.00;;;;;-147.17;100.00;59696.56;4980880;28;51015;-63
2021/06/24 04:41:55;;;;;;;;;11.25;10.25;;;;;-147.17;100.00;59696.56;4941839;28;51026;-63
2021/06/24 04:44:20;;;;;;;;;11.00;11.00;;;;;-147.17;100.00;59696.56;4979136;28;51921;-63
2021/06/24 04:46:46;;;;;;;;;11.00;10.50;;;;;-147.17;100.00;59696.56;4975265;28;51137;-63
2021/06/24 04:49:11;;;;;;;;;10.00;9.67;;;;;-147.17;100.00;59696.56;4976314;28;51205;-64
2021/06/24 04:51:37;;;;;;;;;11.75;11.00;;;;;-147.17;100.00;59696.56;4975464;28;50996;-63
2021/06/24 04:54:02;;;;;;;;;11.75;11.00;;;;;-147.17;100.00;59696.56;4982786;28;52290;-62
2021/06/24 04:56:28;;;;;;;;;11.00;9.33;;;;;-147.17;100.00;59696.56;4980036;28;50938;-63
2021/06/24 04:58:53;;;;;;;;;10.67;10.00;;;;;-147.17;100.00;59696.56;4984036;28;51065;-62
2021/06/24 05:01:18;;;;;;;;;12.00;12.00;;;;;-147.17;100.00;59696.56;4980371;28;51293;-63
2021/06/24 05:03:44;;;;;;;;;11.00;10.75;;;;;-147.17;100.00;59696.56;4975051;28;51956;-63
2021/06/24 05:06:11;;;;;;;;;12.00;10.00;;;;;-147.17;100.00;59696.56;4975185;28;51063;-63
2021/06/24 05:08:36;;;;;;;;;9.00;9.00;;;;;-147.17;100.00;59696.56;4981955;28;51040;-63
2021/06/24 05:11:02;;;;;;;;;11.00;11.00;;;;;-147.17;100.00;59696.56;4980390;28;51391;-62
2021/06/24 05:13:28;;;;;;;;;12.00;11.67;;;;;-147.17;100.00;59696.56;4980801;28;51960;-62
2021/06/24 05:15:53;;;;;;;;;12.00;12.00;;;;;-147.17;100.00;59696.56;4980333;28;51043;-63
2021/06/24 05:18:19;;;;;;;;;11.25;11.25;;;;;-147.17;100.00;59696.56;4975834;28;51058;-63
2021/06/24 05:20:46;;;;;;;;;11.75;11.25;;;;;-147.17;100.00;59696.56;4975001;28;51035;-62
2021/06/24 05:23:13;;;;;;;;;10.33;10.33;;;;;-147.17;100.00;59696.56;4975295;28;51443;-63
2021/06/24 05:25:39;;;;;;;;;11.67;10.67;;;;;-147.17;100.00;59696.56;4974906;28;51157;-63
2021/06/24 05:28:06;;;;;;;;;11.00;10.00;;;;;-147.17;100.00;59696.56;4975474;28;51146;-63
2021/06/24 05:30:32;;;;;;;;;10.75;10.75;;;;;-147.17;100.00;59696.56;4978958;28;51133;-63
2021/06/24 05:32:58;;;;;;;;;12.00;12.00;;;;;-147.17;100.00;59696.56;4976125;28;52989;-64
2021/06/24 05:35:23;;;;;;;;;11.75;11.00;;;;;-147.17;100.00;59696.56;4975473;28;51118;-62
2021/06/24 05:37:48;;;;;;;;;10.75;10.25;;;;;-147.17;100.00;59696.56;4989541;28;51020;-63
2021/06/24 05:40:15;;;;;;;;;11.25;11.00;;;;;-147.17;100.00;59696.56;4977768;28;51270;-65
2021/06/24 05:42:40;;;;;;;;;11.50;11.50;;;;;-147.17;100.00;59696.56;4973132;28;51176;-64
2021/06/24 05:45:06;;;;;;;;;10.75;10.25;;;;;-147.17;100.00;59696.56;4976309;28;51223;-63
2021/06/24 05:47:31;;;;;;;;;10.50;10.50;;;;;-147.17;100.00;59696.56;4972470;28;51045;-62
2021/06/24 05:49:57;;;;;;;;;13.00;12.50;;;;;-147.17;100.00;59696.56;4976176;28;51056;-63
2021/06/24 05:52:22;;;;;;;;;12.00;10.75;;;;;-147.17;100.00;59696.56;4974019;28;52163;-63
2021/06/24 05:54:47;;;;;;;;;11.00;11.00;;;;;-147.17;100.00;59696.56;4969662;28;51267;-61
2021/06/24 05:57:13;;;;;;;;;11.25;10.75;;;;;-147.17;100.00;59696.56;4974984;28;51598;-62
2021/06/24 05:59:38;;;;;;;;;12.75;11.50;;;;;-147.17;100.00;59696.56;4986378;28;51342;-62
2021/06/24 06:02:04;;;;;;;;;12.50;12.50;;;;;-147.17;100.00;59696.56;4974350;28;51222;-63
2021/06/24 06:04:29;;;;;;;;;12.00;12.00;;;;;-147.17;100.00;59696.56;4968129;28;51169;-64
2021/06/24 06:06:54;;;;;;;;;12.25;11.50;;;;;-147.17;100.00;59696.56;4974052;28;51082;-63
2021/06/24 06:09:20;;;;;;;;;13.00;13.00;;;;;-147.17;100.00;59696.56;4984566;28;50925;-63
2021/06/24 06:11:45;;;;;;;;;10.33;9.33;;;;;-147.17;100.00;59696.56;4956786;28;51096;-63
2021/06/24 06:14:11;;;;;;;;;11.25;11.25;;;;;-147.17;100.00;59696.56;4982803;28;51262;-63
2021/06/24 06:16:37;;;;;;;;;11.25;10.50;;;;;-147.17;100.00;59696.56;4974230;28;50991;-64
2021/06/24 06:19:03;;;;;;;;;12.75;11.50;;;;;-147.17;100.00;59696.56;4981685;28;50979;-64
2021/06/24 06:21:30;;;;;;;;;12.00;11.25;;;;;-147.17;100.00;59696.56;4973645;28;51870;-64
2021/06/24 06:23:56;;;;;;;;;12.50;12.25;;;;;-147.17;100.00;59696.56;4974572;28;51171;-65
2021/06/24 06:26:23;;;;;;;;;12.33;12.00;;;;;-147.17;100.00;59696.56;4993356;28;51153;-64
2021/06/24 06:28:49;;;;;;;;;14.50;13.00;;;;;-147.17;100.00;59696.56;4985000;28;51116;-65
2021/06/24 06:31:16;;;;;;;;;13.00;13.00;;;;;-147.17;100.00;59696.56;4991414;28;51876;-63
2021/06/24 06:33:41;;;;;;;;;11.00;11.00;;;;;-147.17;100.00;59696.56;4968292;28;51053;-59
2021/06/24 06:36:07;;;;;;;;;15.00;13.50;;;;;-147.17;100.00;59696.56;4988007;28;51062;-61
2021/06/24 06:38:32;;;;;;;;;12.00;12.00;;;;;-147.17;100.00;59696.56;4987136;28;51304;-62
2021/06/24 06:40:58;;;;;;;;;14.50;13.50;;;;;-147.17;100.00;59696.56;4972076;28;51094;-61
2021/06/24 06:43:23;;;;;;;;;15.00;14.25;;;;;-147.17;100.00;59696.56;4972445;28;51114;-62
2021/06/24 06:45:49;;;;;;;;;15.00;14.25;;;;;-147.17;100.00;59696.56;4972249;28;51086;-61
2021/06/24 06:48:14;;;;;;;;;15.00;13.50;;;;;-147.17;100.00;59696.56;4972843;28;51379;-60
2021/06/24 06:50:42;;;;;;;;;15.25;13.75;;;;;-147.17;100.00;59696.56;4972266;28;51985;-61
2021/06/24 06:53:07;;;;;;;;;11.33;11.00;;;;;-147.17;100.00;59696.56;4972150;28;51002;-62
2021/06/24 06:55:34;;;;;;;;;14.75;12.25;;;;;-147.17;100.00;59696.56;4988647;28;51148;-61
2021/06/24 06:58:00;;;;;;;;;13.00;12.67;;;;;-147.17;100.00;59696.56;4982583;28;50963;-61
2021/06/24 07:00:28;;;;;;;;;15.50;13.25;;;;;-147.17;100.00;59696.56;4965193;28;53067;-61
2021/06/24 07:02:53;;;;;;;;;14.00;14.00;;;;;-147.17;100.00;59696.56;4991716;28;51092;-61
2021/06/24 07:05:19;;;;;;;;;13.50;13.25;;;;;-147.17;100.00;59696.56;4988742;28;51113;-63
2021/06/24 07:07:44;;;;;;;;;14.00;11.50;;;;;-147.17;100.00;59696.56;4987531;28;50926;-62
2021/06/24 07:10:10;;;;;;;;;15.25;13.25;;;;;-147.17;100.00;59696.56;4986561;28;52114;-72
2021/06/24 07:12:36;;;;;;;;;17.00;14.00;;;;;-147.17;100.00;59696.56;4963909;28;51098;-71
2021/06/24 07:15:02;;;;;;;;;20.00;16.00;;;;;-147.17;100.00;59696.56;4972959;28;51141;-71
2021/06/24 07:17:27;;;;;;;;;14.00;12.50;;;;;-147.17;100.00;59696.56;4973524;28;51131;-71
2021/06/24 07:19:53;;;;;;;;;16.75;15.00;;;;;-147.17;100.00;59696.56;4954114;28;51054;-71
2021/06/24 07:22:19;;;;;;;;;18.50;18.00;;;;;-147.17;100.00;59696.56;4972236;28;51161;-72
2021/06/24 07:24:44;;;;;;;;;15.75;14.00;;;;;-147.17;100.00;59696.56;4971714;28;51160;-72
2021/06/24 07:27:09;;;;;;;;;22.75;21.25;;;;;-147.17;100.00;59696.56;4972158;28;51037;-72
2021/06/24 07:29:35;;;;;;;;;12.75;12.75;;;;;-147.17;100.00;59696.56;4972020;28;51972;-71
2021/06/24 07:32:00;;;;;;;;;12.75;12.50;;;;;-147.17;100.00;59696.56;4972219;28;51141;-71
2021/06/24 07:34:26;;;;;;;;;16.50;15.50;;;;;-147.17;100.00;59696.56;4981492;28;51116;-71
2021/06/24 07:36:51;;;;;;;;;15.25;14.00;;;;;-147.17;100.00;59696.56;4985389;28;50995;-70
2021/06/24 07:39:17;;;;;;;;;16.75;15.75;;;;;-147.17;100.00;59696.56;4979485;28;53540;-72
2021/06/24 07:41:42;;;;;;;;;15.00;15.00;;;;;-147.17;100.00;59696.56;4971936;28;50950;-72
2021/06/24 07:44:08;;;;;;;;;14.50;14.50;;;;;-147.17;100.00;59696.56;4972422;28;51255;-72
2021/06/24 07:46:33;;;;;;;;;14.25;14.25;;;;;-147.17;100.00;59696.56;4955512;28;51187;-72
2021/06/24 07:48:59;;;;;;;;;19.00;17.00;;;;;-147.17;100.00;59696.56;4979759;28;51281;-72
2021/06/24 07:51:24;;;;;;;;;15.50;15.25;;;;;-147.17;100.00;59696.56;4976956;28;51107;-73
2021/06/24 07:53:50;;;;;;;;;16.00;15.25;;;;;-147.17;100.00;59696.56;4983495;28;50974;-73
2021/06/24 07:56:17;;;;;;;;;15.00;14.25;;;;;-147.17;100.00;59696.56;4972436;28;51305;-72
2021/06/24 07:58:42;;;;;;;;;14.25;14.00;;;;;-147.17;100.00;59696.56;4975162;28;51989;-74
2021/06/24 08:01:08;;;;;;;;;16.50;16.25;;;;;-147.17;100.00;59696.56;4983920;28;51226;-74
2021/06/24 08:03:35;;;;;;;;;13.75;13.75;;;;;-147.17;100.00;59696.56;4978380;28;51192;-71
2021/06/24 08:06:01;;;;;;;;;14.50;13.75;;;;;-147.17;100.00;59696.56;4960203;28;51332;-71
2021/06/24 08:08:26;;;;;;;;;13.00;12.00;;;;;-147.17;100.00;59696.56;4980559;28;51994;-72
2021/06/24 08:10:52;;;;;;;;;16.00;13.75;;;;;-147.17;100.00;59696.56;4957324;28;51022;-71
2021/06/24 08:13:18;;;;;;;;;14.50;14.50;;;;;-147.17;100.00;59696.56;4979187;28;51264;-73
2021/06/24 08:15:44;;;;;;;;;16.25;15.25;;;;;-147.17;100.00;59696.56;4975368;28;51255;-73
2021/06/24 08:18:09;;;;;;;;;17.00;15.00;;;;;-147.17;100.00;59696.56;4986374;28;52687;-72
2021/06/24 08:20:34;;;;;;;;;13.00;12.33;;;;;-147.17;100.00;59696.56;4979451;28;51000;-72
2021/06/24 08:23:00;;;;;;;;;15.67;15.67;;;;;-147.17;100.00;59696.56;4975283;28;51603;-73
2021/06/24 08:25:25;;;;;;;;;19.00;17.00;;;;;-147.17;100.00;59696.56;4976347;28;51645;-73
2021/06/24 08:27:51;;;;;;;;;17.75;16.50;;;;;-147.17;100.00;59696.56;4974205;28;53649;-72
2021/06/24 08:30:18;;;;;;;;;13.67;13.00;;;;;-147.17;100.00;59696.56;4993033;28;51131;-73
2021/06/24 08:32:45;;;;;;;;;17.00;16.33;;;;;-147.17;100.00;59696.56;4960276;28;51161;-74
2021/06/24 08:35:11;;;;;;;;;16.67;16.00;;;;;-147.17;100.00;59696.56;4971461;28;51153;-73
2021/06/24 08:37:38;;;;;;;;;15.00;15.00;;;;;-147.17;100.00;59696.56;4975280;28;53403;-72
2021/06/24 08:40:06;;;;;;;;;16.00;15.33;;;;;-147.17;100.00;59696.56;4978578;28;51191;-72
2021/06/24 08:42:33;;;;;;;;;18.00;17.00;;;;;-147.17;100.00;59696.56;4961391;28;51364;-72
2021/06/24 08:45:01;;;;;;;;;14.67;14.00;;;;;-147.17;100.00;59696.56;4968297;28;52134;-72
2021/06/24 08:47:28;;;;;;;;;18.67;17.67;;;;;-147.17;100.00;59696.56;4975511;28;52241;-73
2021/06/24 08:49:56;;;;;;;;;13.00;12.00;;;;;-147.17;100.00;59696.56;4973800;28;51171;-74
2021/06/24 08:52:21;;;;;;;;;14.67;14.67;;;;;-147.17;100.00;59696.56;4986729;28;51173;-73
2021/06/24 08:54:46;;;;;;;;;14.00;13.00;;;;;-147.17;100.00;59696.56;4981890;28;51043;-74
2021/06/24 08:57:14;;;;;;;;;15.67;14.67;;;;;-147.17;100.00;59696.56;4973864;28;52251;-72
2021/06/24 08:59:39;;;;;;;;;14.33;13.33;;;;;-147.17;100.00;59696.56;4974028;28;51242;-73
2021/06/24 09:02:07;;;;;;;;;15.00;14.67;;;;;-147.17;100.00;59696.56;4973983;28;50999;-73
2021/06/24 09:04:33;;;;;;;;;15.33;14.67;;;;;-147.17;100.00;59696.56;4992882;28;51253;-73
2021/06/24 09:07:28;;;;;;;;;17.67;17.00;;;;;-147.17;100.00;59696.56;4977116;28;51956;-72
2021/06/24 09:09:56;;;;;;;;;15.00;15.00;;;;;-147.17;100.00;59696.56;4973146;28;51214;-74
2021/06/24 09:12:24;;;;;;;;;18.33;17.00;;;;;-147.17;100.00;59696.56;4990319;28;51687;-72
2021/06/24 09:14:52;;;;;;;;;17.67;16.33;;;;;-147.17;100.00;59696.56;4994077;28;51171;-76
2021/06/24 09:17:40;;;;;;;;;15.67;15.00;;;;;-147.17;100.00;59696.56;4991313;28;52731;-74
2021/06/24 09:20:26;;;;;;;;;14.67;13.67;;;;;-147.17;100.00;59696.56;4984732;28;51089;-73
2021/06/24 09:23:12;;;;;;;;;14.00;13.33;;;;;-147.17;100.00;59696.56;4975852;28;51087;-74
2021/06/24 09:25:43;;;;;;;;;14.67;13.00;;;;;-147.17;100.00;59696.56;4986060;28;51136;-73
2021/06/24 09:28:10;;;;;;;;;14.33;13.67;;;;;-147.17;100.00;59696.56;4973511;28;51998;-73
2021/06/24 09:30:39;;;;;;;;;16.00;15.33;;;;;-147.17;100.00;59696.56;4974638;28;51179;-74
2021/06/24 09:33:15;;;;;;;;;16.00;15.00;;;;;-147.17;100.00;59696.56;4988818;28;51119;-74
2021/06/24 09:35:56;;;;;;;;;15.67;15.67;;;;;-147.17;100.00;59696.56;4988155;28;51409;-73
2021/06/24 09:38:21;;;;;;;;;14.33;14.00;;;;;-147.17;100.00;59696.56;4991849;28;52247;-75
2021/06/24 09:40:57;;;;;;;;;10.33;10.33;;;;;-147.17;100.00;59696.56;4994862;28;51008;-75
2021/06/24 09:43:23;;;;;;;;;18.67;17.67;;;;;-147.17;100.00;59696.56;4993746;28;51157;-75
2021/06/24 09:46:15;;;;;;;;;13.00;12.00;;;;;-147.17;100.00;59696.56;4992588;28;51007;-74
2021/06/24 09:48:43;;;;;;;;;15.67;15.00;;;;;-147.17;100.00;59696.56;4989490;28;51902;-74
2021/06/24 09:51:18;;;;;;;;;15.00;13.33;;;;;-147.17;100.00;59696.56;4991996;28;50972;-72
2021/06/24 09:53:47;;;;;;;;;14.33;13.33;;;;;-147.17;100.00;59696.56;4991948;28;51334;-75
2021/06/24 09:56:25;;;;;;;;;12.00;12.00;;;;;-147.17;100.00;59696.56;4983809;28;51223;-73
2021/06/24 09:58:52;;;;;;;;;15.00;14.00;;;;;-147.17;100.00;59696.56;4973133;28;51038;-74
2021/06/24 10:01:50;;;;;;;;;12.75;12.25;;;;;-147.17;100.00;59696.56;4979515;28;51068;-73
2021/06/24 10:04:29;;;;;;;;;13.67;13.67;;;;;-147.17;100.00;59696.56;4992184;28;51070;-74
2021/06/24 10:06:57;;;;;;;;;14.67;13.33;;;;;-147.17;100.00;59696.56;4984386;28;51127;-74
2021/06/24 10:09:24;;;;;;;;;15.33;15.33;;;;;-147.17;100.00;59696.56;4972986;28;51793;-73
2021/06/24 10:11:51;;;;;;;;;11.00;11.00;;;;;-147.17;100.00;59696.56;4980771;28;51093;-74
2021/06/24 10:14:19;;;;;;;;;11.67;11.67;;;;;-147.17;100.00;59696.56;4975080;28;51115;-74
2021/06/24 10:16:48;;;;;;;;;16.00;15.00;;;;;-147.17;100.00;59696.56;4992646;28;51358;-73
2021/06/24 10:19:15;;;;;;;;;13.67;13.67;;;;;-147.17;100.00;59696.56;4974759;28;51972;-76
2021/06/24 10:21:41;;;;;;;;;12.33;12.33;;;;;-147.17;100.00;59696.56;4991750;28;51140;-74
2021/06/24 10:24:13;;;;;;;;;15.00;14.67;;;;;-147.17;100.00;59696.56;4992780;28;51000;-74
2021/06/24 10:26:43;;;;;;;;;11.67;11.67;;;;;-147.17;100.00;59696.56;4992687;28;51343;-74
2021/06/24 10:29:12;;;;;;;;;13.00;12.00;;;;;-147.17;100.00;59696.56;4991707;28;53132;-74
2021/06/24 10:31:43;;;;;;;;;12.33;12.33;;;;;-147.17;100.00;59696.56;4991719;28;51167;-74
2021/06/24 10:34:08;;;;;;;;;12.67;12.67;;;;;-147.17;100.00;59696.56;4985751;28;51105;-74
2021/06/24 10:36:34;;;;;;;;;11.00;10.00;;;;;-147.17;100.00;59696.56;4992999;28;51182;-74
2021/06/24 10:39:01;;;;;;;;;13.00;11.00;;;;;-147.17;100.00;59696.56;4983469;28;51824;-73
2021/06/24 10:41:26;;;;;;;;;12.67;12.67;;;;;-147.17;100.00;59696.56;4975945;28;51248;-72
2021/06/24 10:43:55;;;;;;;;;17.00;15.33;;;;;-147.17;100.00;59696.56;4992417;28;51077;-73
2021/06/24 10:46:25;;;;;;;;;17.00;16.00;;;;;-147.17;100.00;59696.56;4992795;28;51359;-73
2021/06/24 10:48:52;;;;;;;;;12.33;12.33;;;;;-147.17;100.00;59696.56;4991638;28;52112;-73
2021/06/24 10:51:19;;;;;;;;;12.00;11.00;;;;;-147.17;100.00;59696.56;4989588;28;51081;-74
2021/06/24 10:53:48;;;;;;;;;13.00;12.00;;;;;-147.17;100.00;59696.56;4991181;28;51210;-74